createdAt,value
2019-01-26T00:00:36.133Z,72.29
2019-01-26T00:05:32.715Z,72.60
2019-01-26T00:10:38.870Z,71.89
2019-01-26T00:15:37.579Z,71.59
2019-01-26T00:20:36.500Z,71.41
2019-01-26T00:25:32.437Z,70.86
2019-01-26T00:30:36.093Z,71.45
2019-01-26T00:35:35.523Z,71.87
2019-01-26T00:40:43.807Z,72.85
2019-01-26T00:45:43.212Z,71.67
2019-01-26T00:50:45.051Z,71.54
2019-01-26T00:55:42.407Z,69.74
2019-01-26T01:00:41.442Z,72.68
2019-01-26T01:05:42.383Z,70.55
2019-01-26T01:10:41.321Z,69.67
2019-01-26T01:15:37.938Z,71.75
2019-01-26T01:20:36.611Z,70.60
2019-01-26T01:25:40.451Z,71.71
2019-01-26T01:30:36.393Z,68.84
2019-01-26T01:35:41.220Z,70.02
2019-01-26T01:40:40.261Z,68.51
2019-01-26T01:45:37.345Z,67.23
2019-01-26T01:50:34.406Z,69.66
2019-01-26T01:55:32.100Z,67.13
2019-01-26T02:00:28.487Z,67.76
2019-01-26T02:05:28.872Z,67.88
2019-01-26T02:10:26.223Z,67.04
2019-01-26T02:15:22.433Z,66.29
2019-01-26T02:20:23.544Z,65.60
2019-01-26T02:25:23.726Z,66.54
2019-01-26T02:30:26.367Z,67.20
2019-01-26T02:35:22.713Z,67.73
2019-01-26T02:40:19.054Z,70.41
2019-01-26T02:45:17.060Z,71.12
2019-01-26T02:50:16.004Z,71.17
2019-01-26T02:55:12.475Z,69.37
2019-01-26T03:00:18.958Z,69.48
2019-01-26T03:05:20.987Z,68.12
2019-01-26T03:10:21.060Z,67.99
2019-01-26T03:15:19.926Z,67.33
2019-01-26T03:20:17.873Z,68.72
2019-01-26T03:25:16.599Z,69.14
2019-01-26T03:30:23.768Z,69.41
2019-01-26T03:35:19.589Z,70.66
2019-01-26T03:40:17.823Z,72.50
2019-01-26T03:45:14.807Z,71.05
2019-01-26T03:50:21.174Z,71.59
2019-01-26T03:55:19.089Z,72.08
2019-01-26T04:00:26.117Z,71.61
2019-01-26T04:05:22.100Z,72.73
2019-01-26T04:10:18.788Z,73.25
2019-01-26T04:15:15.531Z,74.03
2019-01-26T04:20:15.123Z,74.67
2019-01-26T04:25:10.939Z,76.11
2019-01-26T04:30:11.208Z,77.70
2019-01-26T04:35:07.798Z,79.45
2019-01-26T04:40:03.769Z,82.11
2019-01-26T04:44:59.601Z,83.34
2019-01-26T04:49:55.844Z,84.85
2019-01-26T04:54:51.937Z,86.53
2019-01-26T04:59:47.857Z,88.43
2019-01-26T05:04:43.889Z,87.75
2019-01-26T05:09:39.941Z,88.56
2019-01-26T05:14:37.375Z,87.19
2019-01-26T05:19:33.225Z,88.02
2019-01-26T05:24:30.861Z,88.09
2019-01-26T05:29:26.779Z,87.63
2019-01-26T05:34:22.780Z,87.26
2019-01-26T05:39:20.048Z,87.68
2019-01-26T05:44:15.960Z,87.43
2019-01-26T05:49:11.826Z,88.03
2019-01-26T05:54:07.774Z,87.58
2019-01-26T05:59:03.725Z,87.32
2019-01-26T06:04:00.696Z,88.30
2019-01-26T06:08:56.657Z,90.88
2019-01-26T06:13:54.138Z,93.31
2019-01-26T06:18:49.955Z,94.98
2019-01-26T06:23:48.042Z,96.29
2019-01-26T06:28:44.911Z,97.23
2019-01-26T06:33:42.057Z,97.83
2019-01-26T06:38:42.672Z,97.91
2019-01-26T06:43:45.166Z,95.20
2019-01-26T06:48:46.437Z,94.81
2019-01-26T06:53:42.584Z,93.31
2019-01-26T06:58:38.583Z,91.46
2019-01-26T07:03:34.413Z,91.31
2019-01-26T07:08:30.270Z,90.95
2019-01-26T07:13:26.369Z,90.90
2019-01-26T07:18:22.435Z,91.02
2019-01-26T07:23:18.266Z,90.65
2019-01-26T07:28:14.190Z,90.62
2019-01-26T07:33:10.044Z,91.21
2019-01-26T07:38:13.320Z,90.07
2019-01-26T07:43:04.043Z,89.81
2019-01-26T07:48:00.128Z,89.82
2019-01-26T07:52:56.239Z,87.87
2019-01-26T07:57:52.227Z,89.45
2019-01-26T08:02:52.259Z,87.69
2019-01-26T08:07:49.362Z,86.63
2019-01-26T08:13:08.127Z,87.36
2019-01-26T08:18:09.227Z,86.62
2019-01-26T08:23:12.586Z,87.59
2019-01-26T08:28:08.731Z,87.36
2019-01-26T08:33:05.288Z,87.32
2019-01-26T08:38:01.262Z,87.27
2019-01-26T08:43:00.074Z,86.78
2019-01-26T08:47:56.157Z,87.36
2019-01-26T08:52:52.357Z,85.43
2019-01-26T08:57:51.660Z,85.01
2019-01-26T09:03:06.435Z,85.31
2019-01-26T09:08:04.241Z,84.95
2019-01-26T09:13:02.142Z,85.99
2019-01-26T09:17:58.343Z,83.47
2019-01-26T09:22:55.649Z,84.96
2019-01-26T09:27:52.041Z,85.49
2019-01-26T09:32:49.412Z,84.05
2019-01-26T09:38:32.903Z,82.47
2019-01-26T09:43:26.104Z,83.50
2019-01-26T09:48:32.053Z,82.49
2019-01-26T09:53:47.395Z,83.54
2019-01-26T09:58:48.628Z,82.62
2019-01-26T10:03:49.354Z,82.95
2019-01-26T10:08:55.029Z,83.49
2019-01-26T10:13:51.080Z,83.65
2019-01-26T10:18:56.669Z,85.04
2019-01-26T10:24:00.969Z,87.89
2019-01-26T10:29:00.277Z,90.54
2019-01-26T10:34:06.029Z,91.74
2019-01-26T10:39:32.630Z,92.39
2019-01-26T10:45:14.210Z,94.10
2019-01-26T10:51:12.241Z,93.25
2019-01-26T10:56:17.074Z,93.09
2019-01-26T11:02:38.695Z,91.80
2019-01-26T11:08:23.267Z,91.27
2019-01-26T11:14:01.220Z,89.25
2019-01-26T12:02:34.150Z,81.96
2019-01-26T12:07:47.759Z,80.75
2019-01-26T12:13:07.059Z,81.85
2019-01-26T12:18:04.072Z,81.67
2019-01-26T12:29:46.303Z,82.32
2019-01-26T12:35:35.803Z,81.57
2019-01-26T12:41:57.674Z,80.88
2019-01-26T12:47:28.225Z,80.16
2019-01-26T12:53:29.381Z,80.99
2019-01-26T12:58:54.584Z,81.21
2019-01-26T13:04:01.221Z,78.28
2019-01-26T13:16:17.755Z,80.16
2019-01-26T13:58:06.908Z,78.48
2019-01-26T14:02:10.150Z,80.62
2019-01-26T14:10:14.506Z,81.21
2019-01-26T16:32:17.724Z,86.71
2019-01-26T16:37:48.124Z,87.29
2019-01-26T16:43:23.581Z,87.85
2019-01-26T16:50:27.497Z,88.22
2019-01-26T19:22:19.609Z,97.09
2019-01-26T19:27:15.493Z,97.48
2019-01-26T19:32:11.332Z,97.59
2019-01-26T19:37:09.405Z,97.04
2019-01-26T19:42:05.235Z,96.70
2019-01-26T19:47:01.341Z,97.46
2019-01-26T19:51:57.062Z,97.72
2019-01-26T19:56:54.272Z,97.66
2019-01-26T20:06:57.520Z,98.06
2019-01-26T20:11:53.370Z,98.14
2019-01-26T20:16:50.940Z,97.75
2019-01-26T20:21:47.869Z,98.54
2019-01-26T20:26:43.635Z,98.71
2019-01-26T20:31:39.420Z,99.20
2019-01-26T20:36:35.239Z,99.79
2019-01-26T20:41:31.815Z,99.96
2019-01-26T20:46:28.736Z,100.00
2019-01-26T20:51:28.261Z,100.00
2019-01-26T20:56:25.712Z,100.00
2019-01-26T21:01:21.985Z,100.00
2019-01-26T21:06:23.326Z,99.43
2019-01-26T21:11:22.435Z,100.00
2019-01-26T21:16:20.370Z,100.00
2019-01-26T21:21:16.262Z,100.00
2019-01-26T21:26:12.149Z,100.00
2019-01-26T21:31:08.037Z,100.00
2019-01-26T21:36:07.111Z,100.00
2019-01-26T21:41:03.062Z,100.00
2019-01-26T21:45:58.906Z,100.00
2019-01-26T21:50:54.715Z,100.00
2019-01-26T21:55:50.727Z,100.00
2019-01-26T22:00:50.659Z,100.00
2019-01-26T22:05:46.650Z,100.00
2019-01-26T22:10:42.863Z,100.00
2019-01-26T22:15:39.372Z,100.00
2019-01-26T22:20:35.352Z,100.00
2019-01-26T22:25:31.617Z,100.00
2019-01-26T22:30:32.090Z,100.00
2019-01-26T22:35:30.107Z,100.00
2019-01-26T22:40:29.214Z,100.00
2019-01-26T22:45:25.502Z,99.23
2019-01-26T22:50:22.202Z,99.18
2019-01-26T22:55:19.247Z,99.81
2019-01-26T23:00:59.561Z,100.00
2019-01-26T23:06:41.371Z,100.00
2019-01-26T23:12:34.031Z,100.00
2019-01-26T23:18:03.143Z,100.00
2019-01-26T23:23:33.135Z,99.56
2019-01-26T23:29:24.942Z,99.56
2019-01-26T23:34:23.486Z,99.58
2019-01-26T23:39:19.309Z,99.82
2019-01-26T23:44:19.045Z,99.99
2019-01-26T23:49:14.866Z,99.74
2019-01-26T23:54:14.589Z,98.61
2019-01-26T23:59:10.382Z,98.58
